»·PEaware :: N247CH KPSP-KMYF

N247CH :: KPSP-KMYF

FLIGHT INFORMATION

Flight Status: Arrived
Operator: Privately registered:
United States
More flights under this callsign
Pilot: Ryan B. (29)
Aircraft: BEECH AIRCRAFT SUPER KING AIR 350
(B350)
More flights by this aircraft type
Origin: KPSP Palm Springs Intl
United States
Destination: KMYF Montgomery
United States
More flights between these airports :: More routes between these airports
Route: TRM6 TRM V208 JLI V514 CANNO
File this flight plan on PilotEdge
Remarks:
Altitude:
(Current/Filed)
14,000ft
Speed:
(Current/Filed)
272kts
Departed: 07-May-19 07:46 PM
Arrived: 07-May-19 08:15 PM
Distance/Time
Traveled:
69nm/0:29
Distance/Time
To Go:
Arrived

Flight Plot

Page will automatically refresh every two minutes.


Map Options




Map Legend


Flown Route
Filed Route
Departure Airport
Arrival Airport
Navaid (VOR, NDB)
Fix

Horizontal Profiles

Position Reports

Time Latitude Longitude Heading Altitude Ground
Speed
07-May-19 19:22 33.822498 -116.495976 233 482ft 0kts
07-May-19 19:23 33.822498 -116.495976 233 482ft 0kts
07-May-19 19:24 33.822498 -116.495976 233 482ft 0kts
07-May-19 19:25 33.822498 -116.495976 233 482ft 0kts
07-May-19 19:26 33.822498 -116.495976 233 482ft 0kts
07-May-19 19:27 33.822498 -116.495976 233 482ft 0kts
07-May-19 19:28 33.822498 -116.495976 233 482ft 0kts
07-May-19 19:29 33.822498 -116.495976 233 482ft 0kts
07-May-19 19:30 33.822498 -116.495977 234 482ft 0kts
07-May-19 19:31 33.822498 -116.495977 234 482ft 0kts
07-May-19 19:33 33.822498 -116.495977 234 482ft 0kts
07-May-19 19:34 33.822498 -116.495977 234 482ft 0kts
07-May-19 19:35 33.822498 -116.495977 234 482ft 0kts
07-May-19 19:36 33.822498 -116.495977 234 482ft 0kts
07-May-19 19:37 33.822498 -116.495977 234 482ft 0kts
07-May-19 19:38 33.822498 -116.495977 234 482ft 0kts
07-May-19 19:39 33.822498 -116.495977 234 482ft 0kts
07-May-19 19:40 33.822498 -116.495977 234 482ft 0kts
07-May-19 19:41 33.822498 -116.495977 234 482ft 0kts
07-May-19 19:42 33.822242 -116.496402 236 482ft 0kts
07-May-19 19:43 33.819904 -116.495974 235 482ft 12kts
07-May-19 19:44 33.819250 -116.497028 235 482ft 0kts
07-May-19 19:45 33.819025 -116.498176 317 482ft 4kts
07-May-19 19:46 33.824330 -116.502894 324 543ft 107kts
07-May-19 19:47 33.860899 -116.512039 26 2195ft 182kts
07-May-19 19:48 33.867202 -116.452791 106 4194ft 190kts
07-May-19 19:49 33.841966 -116.398608 143 6204ft 189kts
07-May-19 19:50 33.802164 -116.355601 141 8239ft 195kts
07-May-19 19:51 33.762388 -116.311111 139 10213ft 201kts
07-May-19 19:52 33.720498 -116.264221 137 12221ft 208kts
07-May-19 19:53 33.673462 -116.228300 204 13976ft 211kts
07-May-19 19:54 33.615493 -116.269822 214 14014ft 268kts
07-May-19 19:54 33.559211 -116.308059 213 14005ft 285kts
07-May-19 19:56 33.477255 -116.363080 212 13998ft 292kts
07-May-19 19:57 33.405757 -116.409386 212 14000ft 293kts
07-May-19 19:57 33.346180 -116.449051 212 14001ft 293kts
07-May-19 19:58 33.274837 -116.496599 212 14001ft 293kts
07-May-19 20:00 33.192608 -116.551361 212 12938ft 288kts
07-May-19 20:00 33.133207 -116.585819 201 11677ft 284kts
07-May-19 20:01 33.060309 -116.616881 203 10168ft 271kts
07-May-19 20:02 32.991226 -116.646495 203 8703ft 257kts
07-May-19 20:03 32.924232 -116.675380 202 8703ft 257kts
07-May-19 20:04 32.856230 -116.704836 202 7992ft 263kts
07-May-19 20:05 32.787862 -116.734849 203 6504ft 262kts
07-May-19 20:06 32.723951 -116.764883 222 5154ft 234kts
07-May-19 20:07 32.708769 -116.831594 261 4994ft 198kts
07-May-19 20:08 32.717909 -116.887347 290 4852ft 160kts
07-May-19 20:09 32.735514 -116.934945 293 4073ft 155kts
07-May-19 20:10 32.753835 -116.981535 293 3238ft 156kts
07-May-19 20:11 32.772421 -117.028589 294 2373ft 158kts
07-May-19 20:12 32.791156 -117.076064 294 1502ft 155kts
07-May-19 20:13 32.807298 -117.117401 294 813ft 114kts
07-May-19 20:14 32.815946 -117.140557 244 415ft 12kts
07-May-19 20:15 32.814377 -117.142495 151 415ft 8kts
07-May-19 20:16 32.814270 -117.142353 99 415ft 0kts

Navigation Log

Ident Type
Flight plan parsing failed, navigation log unavailable